Time;durP1;ratioP1;P1;durP2;ratioP2;P2;SDS_P1;SDS_P2;PMS_P1;PMS_P2;Temp;Humidity;BMP_temperature;BMP_pressure;BME280_temperature;BME280_humidity;BME280_pressure;Samples;Min_cycle;Max_cycle;Signal;HPM_P1;HPM_P2
2024/02/17 00:00:05;;;;;;;39.70;7.70;;;;;;;;;;4993841;28;20165;-78
2024/02/17 00:02:33;;;;;;;38.90;8.25;;;;;;;;;;5007728;28;20049;-78
2024/02/17 00:05:00;;;;;;;47.05;9.13;;;;;;;;;;5013386;28;20069;-79
2024/02/17 00:07:27;;;;;;;51.70;7.07;;;;;;;;;;5011932;28;20041;-78
2024/02/17 00:09:53;;;;;;;37.65;7.88;;;;;;;;;;5012007;28;20042;-79
2024/02/17 00:12:20;;;;;;;40.95;6.93;;;;;;;;;;5010440;28;20294;-77
2024/02/17 00:14:47;;;;;;;32.75;8.10;;;;;;;;;;5010886;28;20424;-76
2024/02/17 00:17:14;;;;;;;36.03;7.15;;;;;;;;;;5010636;28;20418;-78
2024/02/17 00:19:41;;;;;;;46.80;7.97;;;;;;;;;;5011175;28;20034;-78
2024/02/17 00:22:08;;;;;;;33.25;6.90;;;;;;;;;;5010840;28;20033;-79
2024/02/17 00:24:35;;;;;;;26.38;5.90;;;;;;;;;;5007619;28;20060;-78
2024/02/17 00:27:02;;;;;;;32.47;6.22;;;;;;;;;;4993274;28;20542;-79
2024/02/17 00:29:29;;;;;;;40.35;6.47;;;;;;;;;;4993053;28;20038;-78
2024/02/17 00:31:56;;;;;;;26.23;5.93;;;;;;;;;;4993438;28;20509;-78
2024/02/17 00:34:23;;;;;;;31.55;6.35;;;;;;;;;;4992354;28;20072;-78
2024/02/17 00:36:51;;;;;;;31.25;6.93;;;;;;;;;;4993372;28;20046;-78
2024/02/17 00:39:18;;;;;;;32.42;6.50;;;;;;;;;;4992865;28;20498;-78
2024/02/17 00:41:45;;;;;;;30.88;5.60;;;;;;;;;;4993209;28;20073;-78
2024/02/17 00:44:12;;;;;;;31.40;7.55;;;;;;;;;;4992742;28;20130;-77
2024/02/17 00:46:40;;;;;;;27.90;5.40;;;;;;;;;;4993266;28;20053;-78
2024/02/17 00:49:09;;;;;;;29.75;5.57;;;;;;;;;;4992706;28;20042;-78
2024/02/17 00:51:36;;;;;;;30.00;5.13;;;;;;;;;;4993224;28;20054;-78
2024/02/17 00:54:03;;;;;;;26.70;5.63;;;;;;;;;;4993093;28;20049;-77
2024/02/17 00:56:30;;;;;;;33.40;6.05;;;;;;;;;;4992999;28;20077;-78
2024/02/17 00:58:57;;;;;;;24.27;5.45;;;;;;;;;;4993070;28;20401;-78
2024/02/17 01:01:24;;;;;;;26.77;7.15;;;;;;;;;;4992421;28;20501;-78
2024/02/17 01:04:04;;;;;;;23.40;6.13;;;;;;;;;;4993111;28;20129;-79
2024/02/17 01:06:31;;;;;;;21.73;5.32;;;;;;;;;;4993202;28;20047;-78
2024/02/17 01:08:58;;;;;;;25.75;5.40;;;;;;;;;;4992728;28;20121;-78
2024/02/17 01:11:25;;;;;;;28.38;5.80;;;;;;;;;;4992543;28;20542;-78
2024/02/17 01:13:52;;;;;;;30.30;6.35;;;;;;;;;;4993205;28;20062;-78
2024/02/17 01:16:18;;;;;;;31.00;5.60;;;;;;;;;;4992333;28;20129;-78
2024/02/17 01:18:46;;;;;;;25.90;5.88;;;;;;;;;;4992809;28;20488;-78
2024/02/17 01:21:13;;;;;;;30.15;6.38;;;;;;;;;;4992531;28;20050;-79
2024/02/17 01:23:40;;;;;;;27.63;6.38;;;;;;;;;;4992872;28;20057;-79
2024/02/17 01:26:07;;;;;;;30.40;6.93;;;;;;;;;;4992407;28;20046;-79
2024/02/17 01:28:34;;;;;;;28.05;6.38;;;;;;;;;;4992996;28;20069;-79
2024/02/17 01:31:00;;;;;;;39.10;7.20;;;;;;;;;;4993685;28;20042;-77
2024/02/17 01:33:27;;;;;;;36.28;7.35;;;;;;;;;;4992241;28;20417;-79
2024/02/17 01:35:54;;;;;;;42.08;7.18;;;;;;;;;;4994025;28;20042;-78
2024/02/17 01:38:21;;;;;;;36.53;7.32;;;;;;;;;;4995848;28;20046;-78
2024/02/17 01:40:49;;;;;;;38.97;7.90;;;;;;;;;;4994183;28;20046;-79
2024/02/17 01:43:16;;;;;;;34.47;8.00;;;;;;;;;;4995948;28;20042;-79
2024/02/17 01:45:44;;;;;;;31.75;7.55;;;;;;;;;;4996139;28;20077;-79
2024/02/17 01:48:12;;;;;;;45.15;7.03;;;;;;;;;;4978732;28;20413;-77
2024/02/17 01:50:40;;;;;;;50.08;8.07;;;;;;;;;;4996173;28;20042;-78
2024/02/17 01:53:07;;;;;;;48.28;7.63;;;;;;;;;;4995794;28;20381;-77
2024/02/17 01:55:34;;;;;;;39.00;7.60;;;;;;;;;;4995847;28;20129;-78
2024/02/17 01:58:01;;;;;;;31.73;7.60;;;;;;;;;;4995942;28;20053;-77
2024/02/17 02:00:28;;;;;;;40.50;7.68;;;;;;;;;;4995522;28;20042;-79
2024/02/17 02:02:56;;;;;;;34.05;6.90;;;;;;;;;;4995908;28;20047;-78
2024/02/17 02:05:22;;;;;;;35.90;7.63;;;;;;;;;;4995364;28;20047;-77
2024/02/17 02:07:49;;;;;;;33.92;7.57;;;;;;;;;;4995705;28;20129;-78
2024/02/17 02:10:16;;;;;;;26.73;7.32;;;;;;;;;;4994957;28;20045;-77
2024/02/17 02:12:44;;;;;;;37.13;7.85;;;;;;;;;;4995965;28;20089;-78
2024/02/17 02:15:13;;;;;;;38.72;8.57;;;;;;;;;;4995112;28;20042;-80
2024/02/17 02:17:43;;;;;;;37.85;6.97;;;;;;;;;;4995555;28;20042;-78
2024/02/17 02:20:13;;;;;;;39.70;8.20;;;;;;;;;;4995000;28;20042;-79
2024/02/17 02:22:41;;;;;;;32.15;7.18;;;;;;;;;;4995709;28;20100;-79
2024/02/17 02:25:21;;;;;;;29.95;8.25;;;;;;;;;;4994907;28;20363;-79
2024/02/17 02:27:48;;;;;;;28.65;8.73;;;;;;;;;;4995416;28;20042;-79
2024/02/17 02:30:15;;;;;;;25.20;8.50;;;;;;;;;;4994518;28;20054;-78
2024/02/17 02:32:42;;;;;;;22.77;7.03;;;;;;;;;;4995453;28;20042;-77
2024/02/17 02:35:09;;;;;;;34.78;8.55;;;;;;;;;;4994516;28;20042;-77
2024/02/17 02:37:36;;;;;;;27.55;7.40;;;;;;;;;;4995255;28;20061;-78
2024/02/17 02:40:03;;;;;;;31.52;7.97;;;;;;;;;;4995336;28;20038;-78
2024/02/17 02:42:30;;;;;;;26.13;8.00;;;;;;;;;;4994840;28;20058;-78
2024/02/17 02:44:56;;;;;;;22.20;6.70;;;;;;;;;;4995136;28;20085;-78
2024/02/17 02:47:23;;;;;;;27.70;7.00;;;;;;;;;;4976320;28;20046;-77
2024/02/17 02:49:50;;;;;;;36.67;7.10;;;;;;;;;;4995074;28;20049;-78
2024/02/17 02:52:19;;;;;;;26.27;6.18;;;;;;;;;;4994672;28;20050;-78
2024/02/17 02:54:45;;;;;;;24.67;5.80;;;;;;;;;;4994918;28;20042;-78
2024/02/17 02:57:12;;;;;;;37.92;9.13;;;;;;;;;;4994308;28;20046;-78
2024/02/17 02:59:39;;;;;;;30.45;7.72;;;;;;;;;;4994931;28;20101;-77
2024/02/17 03:02:06;;;;;;;33.05;6.85;;;;;;;;;;4994330;28;20046;-77
2024/02/17 03:04:32;;;;;;;23.55;7.60;;;;;;;;;;4977532;28;20497;-77
2024/02/17 03:06:59;;;;;;;21.65;6.75;;;;;;;;;;4994562;28;20046;-78
2024/02/17 03:09:26;;;;;;;27.55;6.95;;;;;;;;;;4993979;28;20054;-78
2024/02/17 03:11:53;;;;;;;21.30;7.03;;;;;;;;;;4994819;28;20134;-78
2024/02/17 03:14:20;;;;;;;17.70;6.45;;;;;;;;;;4994128;28;20397;-79
2024/02/17 03:16:46;;;;;;;30.80;6.55;;;;;;;;;;4994330;28;20740;-78
2024/02/17 03:19:13;;;;;;;32.85;7.28;;;;;;;;;;4993881;28;20042;-78
2024/02/17 03:21:40;;;;;;;31.15;7.63;;;;;;;;;;4994443;28;20096;-77
2024/02/17 03:24:07;;;;;;;22.85;6.13;;;;;;;;;;4993996;28;20043;-77
2024/02/17 03:26:36;;;;;;;37.05;7.28;;;;;;;;;;4994296;28;20421;-78
2024/02/17 03:29:03;;;;;;;44.60;8.18;;;;;;;;;;4994228;28;20046;-77
2024/02/17 03:31:30;;;;;;;55.78;8.43;;;;;;;;;;4993707;28;20441;-77
2024/02/17 03:33:59;;;;;;;35.25;8.13;;;;;;;;;;4994194;28;20043;-78
2024/02/17 03:36:26;;;;;;;58.55;8.98;;;;;;;;;;4993721;28;20056;-78
2024/02/17 03:38:53;;;;;;;85.25;10.85;;;;;;;;;;4994145;28;20065;-80
2024/02/17 03:41:20;;;;;;;77.57;10.88;;;;;;;;;;4993567;28;20039;-79
2024/02/17 03:43:47;;;;;;;63.38;11.23;;;;;;;;;;4994003;28;20047;-78
2024/02/17 03:46:14;;;;;;;73.88;10.90;;;;;;;;;;4993539;28;20125;-78
2024/02/17 03:48:41;;;;;;;98.20;12.20;;;;;;;;;;4993956;28;20054;-78
2024/02/17 03:51:08;;;;;;;112.93;12.60;;;;;;;;;;4993399;28;20106;-78
2024/02/17 03:53:35;;;;;;;149.25;12.98;;;;;;;;;;4993865;28;20061;-79
2024/02/17 03:56:03;;;;;;;123.72;12.00;;;;;;;;;;4993921;28;20133;-78
2024/02/17 03:58:30;;;;;;;153.73;12.90;;;;;;;;;;4993216;28;20132;-78
2024/02/17 04:00:57;;;;;;;121.70;12.18;;;;;;;;;;4993681;28;20038;-78
2024/02/17 04:03:25;;;;;;;133.13;12.57;;;;;;;;;;4993015;28;20096;-78
2024/02/17 04:05:52;;;;;;;135.20;11.75;;;;;;;;;;4993737;28;20302;-78
2024/02/17 04:08:19;;;;;;;103.20;10.27;;;;;;;;;;4993176;28;20053;-78
2024/02/17 04:10:45;;;;;;;122.75;10.82;;;;;;;;;;4993469;28;20050;-78
2024/02/17 04:13:12;;;;;;;111.15;10.13;;;;;;;;;;4993019;28;20543;-78
2024/02/17 04:15:39;;;;;;;118.40;10.75;;;;;;;;;;4993742;28;20114;-78
2024/02/17 04:18:09;;;;;;;90.97;10.30;;;;;;;;;;4992948;28;20043;-77
2024/02/17 04:20:40;;;;;;;72.75;10.23;;;;;;;;;;4992564;28;20046;-78
2024/02/17 04:23:07;;;;;;;43.10;9.57;;;;;;;;;;4993271;28;20069;-78
2024/02/17 04:25:37;;;;;;;48.58;9.88;;;;;;;;;;4994242;28;20145;-77
2024/02/17 04:28:05;;;;;;;51.55;10.25;;;;;;;;;;4993173;28;20051;-77
2024/02/17 04:30:33;;;;;;;37.15;10.20;;;;;;;;;;4994469;28;20381;-79
2024/02/17 04:33:00;;;;;;;40.30;9.80;;;;;;;;;;4993710;28;20042;-79
2024/02/17 04:35:27;;;;;;;46.40;10.85;;;;;;;;;;4992719;28;20050;-78
2024/02/17 04:37:54;;;;;;;47.80;9.18;;;;;;;;;;4993655;28;20049;-77
2024/02/17 04:40:21;;;;;;;33.03;9.10;;;;;;;;;;4992771;28;20039;-77
2024/02/17 04:42:51;;;;;;;30.02;8.70;;;;;;;;;;4993407;28;20104;-78
2024/02/17 04:45:19;;;;;;;35.95;8.63;;;;;;;;;;4992840;28;20042;-77
2024/02/17 04:47:46;;;;;;;36.90;8.20;;;;;;;;;;4993308;28;20388;-76
2024/02/17 04:50:13;;;;;;;38.78;7.93;;;;;;;;;;4992943;28;20047;-78
2024/02/17 04:52:41;;;;;;;21.45;8.35;;;;;;;;;;4993115;28;20449;-78
2024/02/17 04:55:08;;;;;;;27.52;8.95;;;;;;;;;;4992776;28;20034;-79
2024/02/17 04:57:35;;;;;;;21.50;7.45;;;;;;;;;;4993219;28;20042;-78
2024/02/17 05:00:05;;;;;;;29.58;8.02;;;;;;;;;;4993072;28;20073;-77
2024/02/17 05:02:36;;;;;;;33.38;8.60;;;;;;;;;;4992820;28;20492;-78
2024/02/17 05:05:03;;;;;;;24.20;8.40;;;;;;;;;;4993025;28;20049;-78
2024/02/17 05:07:30;;;;;;;32.75;8.98;;;;;;;;;;4992899;28;20046;-78
2024/02/17 05:09:57;;;;;;;34.72;9.98;;;;;;;;;;4992880;28;20054;-77
2024/02/17 05:12:24;;;;;;;26.63;8.77;;;;;;;;;;4996027;28;20062;-78
2024/02/17 05:14:51;;;;;;;26.38;7.88;;;;;;;;;;4996779;28;20138;-78
2024/02/17 05:17:19;;;;;;;29.65;7.72;;;;;;;;;;4996189;28;20050;-77
2024/02/17 05:19:46;;;;;;;19.35;7.18;;;;;;;;;;4996721;28;20056;-78
2024/02/17 05:22:13;;;;;;;23.27;9.07;;;;;;;;;;4996308;28;20038;-78
2024/02/17 05:24:44;;;;;;;32.08;8.32;;;;;;;;;;4996773;28;20042;-78
2024/02/17 05:27:12;;;;;;;30.42;7.57;;;;;;;;;;4996111;28;20053;-78
2024/02/17 05:29:40;;;;;;;30.30;8.43;;;;;;;;;;4996789;28;20050;-78
2024/02/17 05:32:07;;;;;;;26.80;7.03;;;;;;;;;;4996244;28;20393;-78
2024/02/17 05:34:35;;;;;;;21.48;6.18;;;;;;;;;;4996482;28;20057;-78
2024/02/17 05:37:04;;;;;;;19.25;6.65;;;;;;;;;;4996458;28;20042;-78
2024/02/17 05:39:32;;;;;;;;;;;;;;;;;;4996421;28;20058;-78
2024/02/17 05:41:59;;;;;;;27.08;7.28;;;;;;;;;;4996429;28;19921;-78
2024/02/17 05:44:26;;;;;;;24.92;6.85;;;;;;;;;;4995877;28;20046;-78
2024/02/17 05:46:53;;;;;;;26.70;7.35;;;;;;;;;;4979130;28;20038;-78
2024/02/17 05:49:23;;;;;;;20.63;7.10;;;;;;;;;;4995670;28;20047;-78
2024/02/17 05:51:54;;;;;;;23.17;6.90;;;;;;;;;;4996197;28;20073;-78
2024/02/17 05:54:21;;;;;;;21.83;7.50;;;;;;;;;;4995558;28;20046;-78
2024/02/17 05:56:49;;;;;;;25.67;7.18;;;;;;;;;;4996065;28;20057;-78
2024/02/17 05:59:16;;;;;;;20.58;6.43;;;;;;;;;;4995718;28;20042;-78
2024/02/17 06:01:42;;;;;;;22.83;7.10;;;;;;;;;;4995997;28;20449;-78
2024/02/17 06:04:09;;;;;;;19.77;7.25;;;;;;;;;;4995245;28;20564;-78
2024/02/17 06:06:36;;;;;;;23.50;7.10;;;;;;;;;;4996028;28;20074;-77
2024/02/17 06:09:04;;;;;;;24.13;6.68;;;;;;;;;;4995641;28;20058;-77
2024/02/17 06:11:31;;;;;;;20.20;5.97;;;;;;;;;;4995658;28;20054;-77
2024/02/17 06:13:57;;;;;;;24.50;5.82;;;;;;;;;;4978701;28;20437;-77
2024/02/17 06:16:28;;;;;;;20.45;6.38;;;;;;;;;;4994996;28;20054;-78
2024/02/17 06:21:41;;;;;;;19.75;6.22;;;;;;;;;;4995243;28;20092;-78
2024/02/17 06:24:08;;;;;;;20.35;6.35;;;;;;;;;;4994947;28;20052;-78
2024/02/17 06:26:35;;;;;;;18.38;6.68;;;;;;;;;;4976200;28;20062;-78
2024/02/17 06:29:08;;;;;;;21.70;5.80;;;;;;;;;;4974905;28;20050;-77
2024/02/17 06:31:35;;;;;;;24.58;6.32;;;;;;;;;;4975731;28;20710;-78
2024/02/17 06:34:05;;;;;;;23.65;6.07;;;;;;;;;;4983027;28;20061;-77
2024/02/17 06:36:33;;;;;;;20.75;5.95;;;;;;;;;;4995365;28;20385;-78
2024/02/17 06:39:00;;;;;;;28.23;6.60;;;;;;;;;;4995195;28;20046;-78
2024/02/17 06:41:27;;;;;;;25.73;7.55;;;;;;;;;;4994438;28;20046;-78
2024/02/17 06:43:54;;;;;;;24.35;6.85;;;;;;;;;;4995244;28;20053;-78
2024/02/17 06:46:21;;;;;;;27.85;6.47;;;;;;;;;;4994602;28;20053;-78
2024/02/17 06:48:49;;;;;;;28.58;6.97;;;;;;;;;;4995013;28;20073;-78
2024/02/17 06:51:19;;;;;;;31.85;7.90;;;;;;;;;;4993992;28;20045;-82
2024/02/17 06:53:47;;;;;;;36.58;8.55;;;;;;;;;;4977136;28;20108;-78
2024/02/17 06:56:14;;;;;;;32.10;8.35;;;;;;;;;;4992888;28;20054;-80
2024/02/17 06:58:41;;;;;;;35.35;9.52;;;;;;;;;;4988966;28;20051;-81
2024/02/17 07:01:09;;;;;;;39.00;10.38;;;;;;;;;;4991738;28;20138;-78
2024/02/17 07:03:36;;;;;;;52.13;10.45;;;;;;;;;;4994489;28;20516;-80
2024/02/17 07:06:04;;;;;;;68.03;11.35;;;;;;;;;;4989378;28;20101;-77
2024/02/17 07:08:31;;;;;;;77.85;10.40;;;;;;;;;;4991612;28;20050;-77
2024/02/17 07:10:58;;;;;;;48.72;10.23;;;;;;;;;;4991183;28;20049;-78
2024/02/17 07:13:25;;;;;;;52.03;10.63;;;;;;;;;;4991478;28;20046;-79
2024/02/17 07:15:51;;;;;;;43.00;11.10;;;;;;;;;;4975244;28;20034;-79
2024/02/17 07:18:18;;;;;;;48.28;10.10;;;;;;;;;;4991967;28;20038;-78
2024/02/17 07:20:46;;;;;;;40.17;11.20;;;;;;;;;;4993056;28;20042;-78
2024/02/17 07:23:18;;;;;;;56.67;10.25;;;;;;;;;;4998314;28;20046;-78
2024/02/17 07:25:47;;;;;;;43.05;9.82;;;;;;;;;;4991419;28;20046;-80
2024/02/17 07:28:14;;;;;;;39.33;10.80;;;;;;;;;;4990150;28;20054;-78
2024/02/17 07:30:41;;;;;;;39.97;10.65;;;;;;;;;;4990634;28;20540;-78
2024/02/17 07:33:10;;;;;;;39.30;11.10;;;;;;;;;;4990717;28;20437;-77
2024/02/17 07:35:42;;;;;;;35.78;11.63;;;;;;;;;;4983714;28;20039;-77
2024/02/17 07:38:09;;;;;;;40.72;11.23;;;;;;;;;;4990537;28;20038;-79
2024/02/17 07:40:37;;;;;;;32.97;10.73;;;;;;;;;;4991735;28;20066;-78
2024/02/17 07:43:05;;;;;;;34.83;10.93;;;;;;;;;;4985290;28;20051;-76
2024/02/17 07:45:32;;;;;;;30.90;9.20;;;;;;;;;;4986624;28;20128;-79
2024/02/17 07:47:58;;;;;;;31.45;10.75;;;;;;;;;;4992647;28;20056;-79
2024/02/17 07:50:26;;;;;;;37.88;9.07;;;;;;;;;;4992297;28;20054;-78
2024/02/17 07:52:53;;;;;;;37.05;8.77;;;;;;;;;;4991564;28;20068;-79
2024/02/17 07:55:21;;;;;;;41.38;8.98;;;;;;;;;;4991719;28;20052;-79
2024/02/17 07:57:48;;;;;;;34.30;8.60;;;;;;;;;;4991100;28;20097;-78
2024/02/17 08:00:15;;;;;;;30.60;9.25;;;;;;;;;;4989309;28;20050;-78
2024/02/17 08:02:45;;;;;;;25.55;8.60;;;;;;;;;;4988986;28;20042;-78
2024/02/17 08:05:13;;;;;;;30.95;8.15;;;;;;;;;;4991827;28;20441;-78
2024/02/17 08:07:42;;;;;;;41.03;14.93;;;;;;;;;;4992278;28;20112;-78
2024/02/17 08:10:12;;;;;;;40.08;8.52;;;;;;;;;;4990443;28;20046;-78
2024/02/17 08:12:39;;;;;;;31.10;8.93;;;;;;;;;;4985894;28;20062;-78
2024/02/17 08:15:06;;;;;;;21.25;8.35;;;;;;;;;;4990091;28;20046;-78
2024/02/17 08:17:34;;;;;;;29.37;10.30;;;;;;;;;;4991419;28;20046;-78
2024/02/17 08:20:02;;;;;;;28.90;7.18;;;;;;;;;;4991120;28;20336;-78
2024/02/17 08:22:31;;;;;;;26.05;8.27;;;;;;;;;;4990643;28;20053;-78
2024/02/17 08:24:58;;;;;;;32.83;8.15;;;;;;;;;;4992535;28;20038;-77
2024/02/17 08:27:25;;;;;;;22.02;7.03;;;;;;;;;;4991623;28;20129;-78
2024/02/17 08:29:51;;;;;;;28.83;11.73;;;;;;;;;;4998115;28;20473;-78
2024/02/17 08:32:18;;;;;;;29.13;13.45;;;;;;;;;;4991183;28;20413;-78
2024/02/17 08:34:46;;;;;;;23.60;8.25;;;;;;;;;;4991514;28;20097;-78
2024/02/17 08:37:13;;;;;;;25.45;8.52;;;;;;;;;;4982637;28;20588;-78
2024/02/17 08:39:40;;;;;;;25.05;7.97;;;;;;;;;;4991208;28;20097;-79
2024/02/17 08:42:07;;;;;;;21.65;8.02;;;;;;;;;;4989852;28;20053;-82
2024/02/17 08:44:34;;;;;;;23.30;7.20;;;;;;;;;;4992630;28;20061;-78
2024/02/17 08:47:00;;;;;;;26.10;8.10;;;;;;;;;;4995408;28;20046;-77
2024/02/17 08:49:27;;;;;;;25.58;8.70;;;;;;;;;;4995250;28;20050;-79
2024/02/17 08:51:54;;;;;;;30.67;9.30;;;;;;;;;;4995340;28;20050;-79
2024/02/17 08:54:25;;;;;;;32.30;9.52;;;;;;;;;;4994844;28;20072;-79
2024/02/17 08:56:53;;;;;;;27.10;9.93;;;;;;;;;;4995711;28;20042;-79
2024/02/17 08:59:20;;;;;;;27.65;8.65;;;;;;;;;;4994822;28;20043;-78
2024/02/17 09:01:47;;;;;;;28.63;7.68;;;;;;;;;;4994707;28;20474;-78
2024/02/17 09:04:14;;;;;;;29.95;7.88;;;;;;;;;;4992282;28;20062;-79
2024/02/17 09:06:41;;;;;;;24.98;6.95;;;;;;;;;;4995531;28;20134;-79
2024/02/17 09:09:08;;;;;;;25.75;5.95;;;;;;;;;;4982262;28;20042;-79
2024/02/17 09:11:35;;;;;;;28.85;5.88;;;;;;;;;;4995151;28;20050;-78
2024/02/17 09:14:04;;;;;;;24.25;5.15;;;;;;;;;;4991214;28;20386;-79
2024/02/17 09:16:31;;;;;;;19.73;5.55;;;;;;;;;;4994220;28;20101;-78
2024/02/17 09:18:58;;;;;;;25.65;5.75;;;;;;;;;;4994956;28;20050;-80
2024/02/17 09:21:25;;;;;;;25.88;5.93;;;;;;;;;;4994029;28;20046;-78
2024/02/17 09:23:52;;;;;;;19.67;5.05;;;;;;;;;;4995390;28;20045;-79
2024/02/17 09:26:18;;;;;;;25.85;5.72;;;;;;;;;;4995942;28;20425;-79
2024/02/17 09:28:45;;;;;;;32.00;6.13;;;;;;;;;;5005621;28;20046;-77
2024/02/17 09:31:12;;;;;;;27.80;7.30;;;;;;;;;;4989728;28;20046;-77
2024/02/17 09:33:39;;;;;;;27.40;6.22;;;;;;;;;;4994377;28;20038;-78
2024/02/17 09:36:07;;;;;;;16.25;6.00;;;;;;;;;;4994014;28;20030;-77
2024/02/17 09:38:34;;;;;;;22.15;5.20;;;;;;;;;;4994360;28;20105;-78
2024/02/17 09:41:01;;;;;;;21.40;5.10;;;;;;;;;;4992947;28;20061;-77
2024/02/17 09:43:28;;;;;;;24.15;6.18;;;;;;;;;;4993976;28;20042;-80
2024/02/17 09:45:55;;;;;;;18.00;4.82;;;;;;;;;;4993106;28;20043;-77
2024/02/17 09:48:24;;;;;;;20.73;4.75;;;;;;;;;;4995117;28;20057;-78
2024/02/17 09:50:53;;;;;;;25.05;5.75;;;;;;;;;;5000844;28;20042;-77
2024/02/17 09:53:22;;;;;;;23.38;5.38;;;;;;;;;;4996392;28;20039;-78
2024/02/17 09:55:48;;;;;;;18.23;5.78;;;;;;;;;;5001735;28;20041;-78
2024/02/17 09:58:15;;;;;;;23.40;6.72;;;;;;;;;;4994798;28;20474;-78
2024/02/17 10:00:42;;;;;;;19.33;6.53;;;;;;;;;;4992516;28;20108;-78
2024/02/17 10:03:09;;;;;;;25.67;6.95;;;;;;;;;;4990399;28;20116;-78
2024/02/17 10:05:36;;;;;;;22.58;6.15;;;;;;;;;;4992245;28;20478;-78
2024/02/17 10:08:06;;;;;;;27.00;6.78;;;;;;;;;;4990985;28;20449;-78
2024/02/17 10:10:35;;;;;;;38.55;15.50;;;;;;;;;;4989353;28;20043;-78
2024/02/17 10:13:02;;;;;;;;;;;;;;;;;;4981729;28;20050;-79
2024/02/17 10:15:31;;;;;;;90.47;53.15;;;;;;;;;;4992957;28;19928;-78
2024/02/17 10:17:58;;;;;;;81.82;49.00;;;;;;;;;;4993910;28;20133;-78
2024/02/17 10:20:24;;;;;;;120.65;70.60;;;;;;;;;;4993488;28;20150;-78
2024/02/17 10:22:51;;;;;;;35.05;14.23;;;;;;;;;;4993975;28;20047;-81
2024/02/17 10:25:18;;;;;;;25.60;7.53;;;;;;;;;;4977242;28;20038;-77
2024/02/17 10:27:50;;;;;;;20.85;6.68;;;;;;;;;;4989507;28;20046;-78
2024/02/17 10:30:19;;;;;;;23.17;5.13;;;;;;;;;;4993312;28;20049;-78
2024/02/17 10:32:47;;;;;;;24.13;3.50;;;;;;;;;;4993622;28;20050;-78
2024/02/17 10:35:15;;;;;;;16.10;3.25;;;;;;;;;;4993094;28;20117;-77
2024/02/17 10:37:42;;;;;;;18.98;2.97;;;;;;;;;;4993842;28;20068;-78
2024/02/17 10:40:11;;;;;;;21.40;4.60;;;;;;;;;;4992872;28;20041;-78
2024/02/17 10:42:38;;;;;;;42.80;20.05;;;;;;;;;;4992198;28;20398;-79
2024/02/17 10:45:06;;;;;;;24.55;7.38;;;;;;;;;;4991974;28;20477;-76
2024/02/17 10:47:36;;;;;;;21.63;5.63;;;;;;;;;;4993680;28;20038;-78
2024/02/17 10:50:12;;;;;;;18.77;9.43;;;;;;;;;;4993069;28;20490;-76
2024/02/17 10:52:51;;;;;;;;;;;;;;;;;;4993834;28;20057;-78
2024/02/17 10:55:24;;;;;;;25.42;4.72;;;;;;;;;;4991190;28;19929;-78
2024/02/17 10:57:54;;;;;;;15.75;3.53;;;;;;;;;;4990072;28;20093;-78
2024/02/17 11:00:25;;;;;;;22.20;4.78;;;;;;;;;;4990512;28;20478;-78
2024/02/17 11:03:03;;;;;;;21.83;5.85;;;;;;;;;;4993427;28;20038;-78
2024/02/17 11:05:36;;;;;;;18.53;3.60;;;;;;;;;;4992914;28;20061;-79
2024/02/17 11:08:05;;;;;;;16.85;2.92;;;;;;;;;;4991499;28;20532;-79
2024/02/17 11:10:32;;;;;;;18.13;2.47;;;;;;;;;;4990709;28;20070;-78
2024/02/17 11:12:59;;;;;;;14.27;3.13;;;;;;;;;;4990751;28;20054;-79
2024/02/17 11:15:28;;;;;;;13.85;3.55;;;;;;;;;;4990387;28;20355;-78
2024/02/17 11:17:59;;;;;;;14.55;3.25;;;;;;;;;;4991061;28;20093;-79
2024/02/17 11:20:27;;;;;;;10.88;2.58;;;;;;;;;;4990584;28;20085;-78
2024/02/17 11:22:59;;;;;;;46.72;22.30;;;;;;;;;;4974006;28;20046;-78
2024/02/17 11:25:38;;;;;;;38.10;19.73;;;;;;;;;;4984337;28;20492;-78
2024/02/17 11:28:17;;;;;;;49.78;27.48;;;;;;;;;;4986566;28;20046;-79
2024/02/17 11:30:49;;;;;;;29.80;13.65;;;;;;;;;;4981497;28;20042;-78
2024/02/17 11:33:21;;;;;;;18.73;7.28;;;;;;;;;;4976809;28;20043;-78
2024/02/17 11:35:49;;;;;;;12.73;3.67;;;;;;;;;;4993159;28;20047;-78
2024/02/17 11:38:24;;;;;;;22.13;13.80;;;;;;;;;;4993662;28;20065;-78
2024/02/17 11:40:54;;;;;;;46.08;27.20;;;;;;;;;;4994086;28;20101;-78
2024/02/17 11:43:29;;;;;;;50.97;32.95;;;;;;;;;;4993509;28;20481;-77
2024/02/17 11:45:57;;;;;;;125.22;90.75;;;;;;;;;;4994181;28;20053;-77
2024/02/17 11:48:32;;;;;;;35.08;20.75;;;;;;;;;;4993513;28;20058;-78
2024/02/17 11:51:06;;;;;;;17.52;3.88;;;;;;;;;;4993410;28;20096;-78
2024/02/17 11:53:33;;;;;;;140.55;50.60;;;;;;;;;;4974359;28;20133;-79
2024/02/17 11:56:01;;;;;;;37.22;18.92;;;;;;;;;;4990901;28;20374;-78
2024/02/17 11:58:29;;;;;;;16.55;4.90;;;;;;;;;;4991712;28;20065;-76
2024/02/17 12:00:57;;;;;;;11.68;2.60;;;;;;;;;;4990826;28;20460;-76
2024/02/17 12:03:28;;;;;;;13.70;3.88;;;;;;;;;;4988880;28;20224;-78
2024/02/17 12:06:00;;;;;;;14.50;3.75;;;;;;;;;;4981102;28;20070;-77
2024/02/17 12:08:29;;;;;;;13.45;3.00;;;;;;;;;;4983928;28;20038;-78
2024/02/17 12:10:56;;;;;;;16.38;5.97;;;;;;;;;;4981645;28;20043;-78
2024/02/17 12:13:23;;;;;;;12.47;4.00;;;;;;;;;;4986923;28;20390;-78
2024/02/17 12:15:51;;;;;;;16.10;3.20;;;;;;;;;;4988987;28;20050;-77
2024/02/17 12:18:18;;;;;;;17.35;2.85;;;;;;;;;;4985306;28;20553;-77
2024/02/17 12:20:45;;;;;;;14.90;2.85;;;;;;;;;;4990157;28;20476;-78
2024/02/17 12:23:17;;;;;;;16.20;2.85;;;;;;;;;;4981975;28;20069;-78
2024/02/17 12:25:44;;;;;;;15.25;4.53;;;;;;;;;;4981612;28;20053;-78
2024/02/17 12:28:11;;;;;;;16.25;3.50;;;;;;;;;;4990633;28;20385;-78
2024/02/17 12:30:50;;;;;;;16.08;2.83;;;;;;;;;;4991519;28;20397;-78
2024/02/17 12:33:19;;;;;;;;;;;;;;;;;;4977004;28;20047;-77
2024/02/17 12:35:48;;;;;;;12.98;5.50;;;;;;;;;;4992722;28;19922;-77
2024/02/17 12:38:19;;;;;;;21.75;7.00;;;;;;;;;;5003134;28;20046;-77
2024/02/17 12:40:50;;;;;;;17.75;4.55;;;;;;;;;;4991212;28;20477;-77
2024/02/17 12:43:24;;;;;;;17.10;6.28;;;;;;;;;;4991556;28;20038;-78
2024/02/17 12:46:16;;;;;;;18.35;5.00;;;;;;;;;;4991383;28;20141;-80
2024/02/17 12:48:43;;;;;;;13.43;3.15;;;;;;;;;;4991495;28;20224;-79
2024/02/17 12:51:10;;;;;;;12.35;3.13;;;;;;;;;;4990771;28;20042;-77
2024/02/17 12:53:38;;;;;;;16.85;3.05;;;;;;;;;;4991828;28;20046;-78
2024/02/17 12:56:06;;;;;;;12.15;2.95;;;;;;;;;;4990569;28;20046;-77
2024/02/17 12:58:32;;;;;;;13.82;3.00;;;;;;;;;;4990281;28;20555;-77
2024/02/17 13:00:59;;;;;;;16.35;3.47;;;;;;;;;;4991392;28;20469;-78
2024/02/17 13:03:27;;;;;;;12.80;3.05;;;;;;;;;;4990567;28;20092;-77
2024/02/17 13:05:54;;;;;;;18.33;3.20;;;;;;;;;;4991150;28;20046;-77
2024/02/17 13:08:21;;;;;;;20.90;3.60;;;;;;;;;;4990482;28;20297;-78
2024/02/17 13:10:47;;;;;;;16.25;3.22;;;;;;;;;;4990693;28;20047;-78
2024/02/17 13:13:14;;;;;;;19.90;2.78;;;;;;;;;;4990657;28;20499;-78
2024/02/17 13:15:41;;;;;;;17.77;2.72;;;;;;;;;;4990132;28;20109;-78
2024/02/17 13:18:08;;;;;;;13.85;2.80;;;;;;;;;;4990208;28;20474;-78
2024/02/17 13:20:35;;;;;;;16.10;2.80;;;;;;;;;;4993020;28;20397;-77
2024/02/17 13:23:01;;;;;;;12.75;2.47;;;;;;;;;;4993001;28;20398;-77
2024/02/17 13:25:29;;;;;;;11.90;2.20;;;;;;;;;;4992422;28;20065;-77
2024/02/17 13:27:55;;;;;;;13.95;2.30;;;;;;;;;;4993006;28;20133;-77
2024/02/17 13:30:23;;;;;;;15.50;2.80;;;;;;;;;;4992328;28;20030;-77
2024/02/17 13:32:50;;;;;;;14.30;3.30;;;;;;;;;;4995429;28;20046;-78
2024/02/17 13:35:18;;;;;;;15.10;2.70;;;;;;;;;;4996024;28;20046;-78
2024/02/17 13:37:46;;;;;;;15.77;3.22;;;;;;;;;;4996387;28;20470;-78
2024/02/17 13:40:17;;;;;;;15.57;3.03;;;;;;;;;;4995781;28;20038;-77
2024/02/17 13:42:45;;;;;;;11.10;2.20;;;;;;;;;;4996348;28;20101;-79
2024/02/17 13:45:12;;;;;;;13.77;2.20;;;;;;;;;;4978805;28;20474;-78
2024/02/17 13:47:40;;;;;;;13.57;2.25;;;;;;;;;;4996308;28;20092;-78
2024/02/17 13:50:11;;;;;;;12.32;2.55;;;;;;;;;;4995737;28;20046;-78
2024/02/17 13:52:38;;;;;;;12.20;3.28;;;;;;;;;;4996153;28;20046;-78
2024/02/17 13:55:06;;;;;;;12.85;2.22;;;;;;;;;;4995661;28;20047;-77
2024/02/17 13:57:33;;;;;;;14.98;2.58;;;;;;;;;;4996116;28;20065;-77
2024/02/17 14:00:01;;;;;;;9.82;2.30;;;;;;;;;;4995818;28;20042;-78
2024/02/17 14:02:28;;;;;;;14.45;1.98;;;;;;;;;;4995579;28;20042;-78
2024/02/17 14:04:55;;;;;;;20.38;2.72;;;;;;;;;;4996420;28;20053;-77
2024/02/17 14:07:23;;;;;;;21.85;2.80;;;;;;;;;;4995482;28;20038;-77
2024/02/17 14:09:53;;;;;;;10.85;2.17;;;;;;;;;;4995790;28;20042;-77
2024/02/17 14:12:20;;;;;;;17.17;2.83;;;;;;;;;;4995398;28;20046;-78
2024/02/17 14:14:47;;;;;;;11.23;2.10;;;;;;;;;;4995786;28;20489;-78
2024/02/17 14:17:14;;;;;;;13.45;2.80;;;;;;;;;;4995452;28;20048;-77
2024/02/17 14:19:41;;;;;;;9.65;2.53;;;;;;;;;;4995442;28;20133;-78
2024/02/17 14:22:13;;;;;;;13.50;2.80;;;;;;;;;;4995182;28;20378;-78
2024/02/17 14:24:40;;;;;;;11.77;2.72;;;;;;;;;;4995650;28;20074;-77
2024/02/17 14:27:07;;;;;;;13.98;2.92;;;;;;;;;;4995394;28;20053;-78
2024/02/17 14:29:36;;;;;;;13.55;3.10;;;;;;;;;;4995563;28;20042;-78
2024/02/17 14:32:04;;;;;;;12.35;2.28;;;;;;;;;;4995683;28;20057;-77
2024/02/17 14:34:31;;;;;;;14.53;2.37;;;;;;;;;;4995235;28;20504;-78